sensor_id;sensor_type;location;lat;lon;timestamp;P1;durP1;ratioP1;P2;durP2;ratioP2
2760;SDS011;15420;48.636;9.798;2023-03-21T00:00:56;2.50;;;2.03;;
2760;SDS011;15420;48.636;9.798;2023-03-21T00:03:24;2.50;;;2.30;;
2760;SDS011;15420;48.636;9.798;2023-03-21T00:05:51;3.80;;;1.87;;
2760;SDS011;15420;48.636;9.798;2023-03-21T00:08:20;3.20;;;3.00;;
2760;SDS011;15420;48.636;9.798;2023-03-21T00:10:56;2.90;;;2.70;;
2760;SDS011;15420;48.636;9.798;2023-03-21T00:13:26;3.20;;;2.90;;
2760;SDS011;15420;48.636;9.798;2023-03-21T00:16:17;4.23;;;2.80;;
2760;SDS011;15420;48.636;9.798;2023-03-21T00:18:46;3.73;;;3.20;;
2760;SDS011;15420;48.636;9.798;2023-03-21T00:21:17;4.73;;;2.90;;
2760;SDS011;15420;48.636;9.798;2023-03-21T00:23:45;2.83;;;2.57;;
2760;SDS011;15420;48.636;9.798;2023-03-21T00:26:15;2.90;;;2.70;;
2760;SDS011;15420;48.636;9.798;2023-03-21T00:28:42;4.20;;;3.53;;
2760;SDS011;15420;48.636;9.798;2023-03-21T00:31:08;3.20;;;2.30;;
2760;SDS011;15420;48.636;9.798;2023-03-21T00:33:35;8.73;;;3.20;;
2760;SDS011;15420;48.636;9.798;2023-03-21T00:36:03;4.83;;;3.30;;
2760;SDS011;15420;48.636;9.798;2023-03-21T00:38:35;4.07;;;3.50;;
2760;SDS011;15420;48.636;9.798;2023-03-21T00:41:05;4.23;;;3.10;;
2760;SDS011;15420;48.636;9.798;2023-03-21T00:43:32;3.20;;;2.87;;
2760;SDS011;15420;48.636;9.798;2023-03-21T00:45:59;3.57;;;2.83;;
2760;SDS011;15420;48.636;9.798;2023-03-21T00:48:27;4.67;;;2.90;;
2760;SDS011;15420;48.636;9.798;2023-03-21T00:50:54;3.90;;;2.47;;
2760;SDS011;15420;48.636;9.798;2023-03-21T00:53:23;2.37;;;2.17;;
2760;SDS011;15420;48.636;9.798;2023-03-21T00:55:49;7.30;;;2.50;;
2760;SDS011;15420;48.636;9.798;2023-03-21T00:58:16;2.77;;;2.57;;
2760;SDS011;15420;48.636;9.798;2023-03-21T01:00:42;2.60;;;2.40;;
2760;SDS011;15420;48.636;9.798;2023-03-21T01:03:11;3.33;;;2.93;;
2760;SDS011;15420;48.636;9.798;2023-03-21T01:05:43;4.27;;;2.33;;
2760;SDS011;15420;48.636;9.798;2023-03-21T01:08:30;2.97;;;2.60;;
2760;SDS011;15420;48.636;9.798;2023-03-21T01:11:03;3.10;;;2.67;;
2760;SDS011;15420;48.636;9.798;2023-03-21T01:13:36;3.13;;;2.30;;
2760;SDS011;15420;48.636;9.798;2023-03-21T01:16:03;2.60;;;2.40;;
2760;SDS011;15420;48.636;9.798;2023-03-21T01:18:30;4.73;;;2.77;;
2760;SDS011;15420;48.636;9.798;2023-03-21T01:20:58;3.10;;;2.57;;
2760;SDS011;15420;48.636;9.798;2023-03-21T01:23:26;2.20;;;2.00;;
2760;SDS011;15420;48.636;9.798;2023-03-21T01:25:56;3.00;;;2.67;;
2760;SDS011;15420;48.636;9.798;2023-03-21T01:28:24;2.70;;;2.17;;
2760;SDS011;15420;48.636;9.798;2023-03-21T01:30:52;5.23;;;2.67;;
2760;SDS011;15420;48.636;9.798;2023-03-21T01:33:21;4.90;;;2.73;;
2760;SDS011;15420;48.636;9.798;2023-03-21T01:35:50;3.90;;;2.70;;
2760;SDS011;15420;48.636;9.798;2023-03-21T01:38:18;3.93;;;3.10;;
2760;SDS011;15420;48.636;9.798;2023-03-21T01:40:52;4.87;;;3.60;;
2760;SDS011;15420;48.636;9.798;2023-03-21T01:43:28;3.83;;;3.50;;
2760;SDS011;15420;48.636;9.798;2023-03-21T01:48:32;3.63;;;2.87;;
2760;SDS011;15420;48.636;9.798;2023-03-21T01:51:02;4.47;;;3.50;;
2760;SDS011;15420;48.636;9.798;2023-03-21T01:53:34;4.27;;;3.07;;
2760;SDS011;15420;48.636;9.798;2023-03-21T01:58:43;3.03;;;2.70;;
2760;SDS011;15420;48.636;9.798;2023-03-21T02:01:14;3.33;;;2.63;;
2760;SDS011;15420;48.636;9.798;2023-03-21T02:03:44;6.10;;;3.20;;
2760;SDS011;15420;48.636;9.798;2023-03-21T02:06:17;3.33;;;2.53;;
2760;SDS011;15420;48.636;9.798;2023-03-21T02:09:01;2.80;;;2.50;;
2760;SDS011;15420;48.636;9.798;2023-03-21T02:11:33;5.13;;;2.90;;
2760;SDS011;15420;48.636;9.798;2023-03-21T02:14:04;2.80;;;2.60;;
2760;SDS011;15420;48.636;9.798;2023-03-21T02:16:42;3.00;;;2.80;;
2760;SDS011;15420;48.636;9.798;2023-03-21T02:27:54;3.13;;;2.83;;
2760;SDS011;15420;48.636;9.798;2023-03-21T02:30:41;3.20;;;2.90;;
2760;SDS011;15420;48.636;9.798;2023-03-21T02:47:13;4.17;;;2.60;;
2760;SDS011;15420;48.636;9.798;2023-03-21T02:52:32;3.10;;;2.70;;
2760;SDS011;15420;48.636;9.798;2023-03-21T02:55:02;4.37;;;2.83;;
2760;SDS011;15420;48.636;9.798;2023-03-21T02:57:37;4.70;;;2.80;;
2760;SDS011;15420;48.636;9.798;2023-03-21T03:00:07;2.63;;;2.43;;
2760;SDS011;15420;48.636;9.798;2023-03-21T03:02:39;3.17;;;2.37;;
2760;SDS011;15420;48.636;9.798;2023-03-21T03:05:12;5.60;;;2.43;;
2760;SDS011;15420;48.636;9.798;2023-03-21T03:07:57;2.23;;;2.03;;
2760;SDS011;15420;48.636;9.798;2023-03-21T03:10:41;2.20;;;2.00;;
2760;SDS011;15420;48.636;9.798;2023-03-21T03:19:00;3.30;;;2.27;;
2760;SDS011;15420;48.636;9.798;2023-03-21T03:21:38;5.03;;;2.37;;
2760;SDS011;15420;48.636;9.798;2023-03-21T03:27:20;3.20;;;2.40;;
2760;SDS011;15420;48.636;9.798;2023-03-21T03:29:54;2.13;;;1.93;;
2760;SDS011;15420;48.636;9.798;2023-03-21T03:32:35;2.73;;;1.90;;
2760;SDS011;15420;48.636;9.798;2023-03-21T03:35:19;2.50;;;2.30;;
2760;SDS011;15420;48.636;9.798;2023-03-21T03:37:55;2.60;;;2.40;;
2760;SDS011;15420;48.636;9.798;2023-03-21T03:42:59;2.50;;;2.30;;
2760;SDS011;15420;48.636;9.798;2023-03-21T03:45:39;2.47;;;2.27;;
2760;SDS011;15420;48.636;9.798;2023-03-21T03:48:34;3.30;;;2.20;;
2760;SDS011;15420;48.636;9.798;2023-03-21T03:51:19;2.87;;;2.67;;
2760;SDS011;15420;48.636;9.798;2023-03-21T03:54:12;5.00;;;2.20;;
2760;SDS011;15420;48.636;9.798;2023-03-21T03:56:50;4.17;;;2.40;;
2760;SDS011;15420;48.636;9.798;2023-03-21T03:59:19;2.93;;;2.73;;
2760;SDS011;15420;48.636;9.798;2023-03-21T04:01:49;3.00;;;2.43;;
2760;SDS011;15420;48.636;9.798;2023-03-21T04:04:15;2.60;;;2.40;;
2760;SDS011;15420;48.636;9.798;2023-03-21T04:06:42;6.83;;;2.60;;
2760;SDS011;15420;48.636;9.798;2023-03-21T04:09:15;2.53;;;2.17;;
2760;SDS011;15420;48.636;9.798;2023-03-21T04:11:46;3.50;;;2.90;;
2760;SDS011;15420;48.636;9.798;2023-03-21T04:14:14;5.47;;;3.70;;
2760;SDS011;15420;48.636;9.798;2023-03-21T04:16:40;2.93;;;2.73;;
2760;SDS011;15420;48.636;9.798;2023-03-21T04:19:07;3.40;;;2.83;;
2760;SDS011;15420;48.636;9.798;2023-03-21T04:21:33;3.17;;;2.97;;
2760;SDS011;15420;48.636;9.798;2023-03-21T04:24:05;4.67;;;3.33;;
2760;SDS011;15420;48.636;9.798;2023-03-21T04:26:32;3.03;;;2.83;;
2760;SDS011;15420;48.636;9.798;2023-03-21T04:29:00;3.50;;;2.73;;
2760;SDS011;15420;48.636;9.798;2023-03-21T04:31:30;3.00;;;2.80;;
2760;SDS011;15420;48.636;9.798;2023-03-21T04:33:58;3.40;;;3.10;;
2760;SDS011;15420;48.636;9.798;2023-03-21T04:36:33;3.83;;;3.10;;
2760;SDS011;15420;48.636;9.798;2023-03-21T04:39:11;8.47;;;3.20;;
2760;SDS011;15420;48.636;9.798;2023-03-21T04:41:39;5.37;;;3.00;;
2760;SDS011;15420;48.636;9.798;2023-03-21T04:44:14;7.27;;;3.10;;
2760;SDS011;15420;48.636;9.798;2023-03-21T04:46:43;3.67;;;3.27;;
2760;SDS011;15420;48.636;9.798;2023-03-21T04:49:09;3.40;;;3.10;;
2760;SDS011;15420;48.636;9.798;2023-03-21T04:51:36;6.33;;;3.40;;
2760;SDS011;15420;48.636;9.798;2023-03-21T04:54:04;3.67;;;3.07;;
2760;SDS011;15420;48.636;9.798;2023-03-21T04:56:31;4.50;;;3.33;;
2760;SDS011;15420;48.636;9.798;2023-03-21T04:59:01;5.37;;;3.37;;
2760;SDS011;15420;48.636;9.798;2023-03-21T05:01:31;4.10;;;3.10;;
2760;SDS011;15420;48.636;9.798;2023-03-21T05:03:59;4.90;;;3.77;;
2760;SDS011;15420;48.636;9.798;2023-03-21T05:06:27;4.23;;;3.03;;
2760;SDS011;15420;48.636;9.798;2023-03-21T05:08:55;3.80;;;3.20;;
2760;SDS011;15420;48.636;9.798;2023-03-21T05:11:28;3.27;;;2.97;;
2760;SDS011;15420;48.636;9.798;2023-03-21T05:14:00;3.00;;;2.80;;
2760;SDS011;15420;48.636;9.798;2023-03-21T05:16:28;3.63;;;3.23;;
2760;SDS011;15420;48.636;9.798;2023-03-21T05:18:55;4.43;;;3.10;;
2760;SDS011;15420;48.636;9.798;2023-03-21T05:21:31;3.23;;;2.73;;
2760;SDS011;15420;48.636;9.798;2023-03-21T05:24:05;2.60;;;2.30;;
2760;SDS011;15420;48.636;9.798;2023-03-21T05:26:39;3.40;;;2.50;;
2760;SDS011;15420;48.636;9.798;2023-03-21T05:29:07;6.03;;;3.10;;
2760;SDS011;15420;48.636;9.798;2023-03-21T05:31:33;4.13;;;3.20;;
2760;SDS011;15420;48.636;9.798;2023-03-21T05:34:00;4.47;;;2.77;;
2760;SDS011;15420;48.636;9.798;2023-03-21T05:36:27;3.23;;;2.83;;
2760;SDS011;15420;48.636;9.798;2023-03-21T05:38:57;3.83;;;2.73;;
2760;SDS011;15420;48.636;9.798;2023-03-21T05:41:26;4.77;;;2.80;;
2760;SDS011;15420;48.636;9.798;2023-03-21T05:43:55;3.10;;;2.80;;
2760;SDS011;15420;48.636;9.798;2023-03-21T05:46:32;4.37;;;2.93;;
2760;SDS011;15420;48.636;9.798;2023-03-21T05:48:58;3.40;;;2.87;;
2760;SDS011;15420;48.636;9.798;2023-03-21T05:51:24;3.80;;;3.40;;
2760;SDS011;15420;48.636;9.798;2023-03-21T05:53:56;6.50;;;3.13;;
2760;SDS011;15420;48.636;9.798;2023-03-21T05:56:22;4.03;;;3.30;;
2760;SDS011;15420;48.636;9.798;2023-03-21T05:58:50;6.63;;;4.10;;
2760;SDS011;15420;48.636;9.798;2023-03-21T06:01:23;5.07;;;3.80;;
2760;SDS011;15420;48.636;9.798;2023-03-21T06:03:51;4.40;;;3.63;;
2760;SDS011;15420;48.636;9.798;2023-03-21T06:06:20;4.87;;;3.80;;
2760;SDS011;15420;48.636;9.798;2023-03-21T06:08:46;4.27;;;3.10;;
2760;SDS011;15420;48.636;9.798;2023-03-21T06:11:19;6.40;;;4.23;;
2760;SDS011;15420;48.636;9.798;2023-03-21T06:13:55;5.50;;;3.60;;
2760;SDS011;15420;48.636;9.798;2023-03-21T06:16:25;6.60;;;3.30;;
2760;SDS011;15420;48.636;9.798;2023-03-21T06:18:52;3.13;;;2.80;;
2760;SDS011;15420;48.636;9.798;2023-03-21T06:21:22;4.33;;;3.40;;
2760;SDS011;15420;48.636;9.798;2023-03-21T06:23:52;3.67;;;3.37;;
2760;SDS011;15420;48.636;9.798;2023-03-21T06:26:18;4.50;;;3.43;;
2760;SDS011;15420;48.636;9.798;2023-03-21T06:28:51;3.93;;;3.53;;
2760;SDS011;15420;48.636;9.798;2023-03-21T06:31:22;4.03;;;3.23;;
2760;SDS011;15420;48.636;9.798;2023-03-21T06:33:55;5.93;;;3.90;;
2760;SDS011;15420;48.636;9.798;2023-03-21T06:36:24;5.00;;;3.73;;
2760;SDS011;15420;48.636;9.798;2023-03-21T06:38:50;6.23;;;4.23;;
2760;SDS011;15420;48.636;9.798;2023-03-21T06:41:19;6.57;;;3.93;;
2760;SDS011;15420;48.636;9.798;2023-03-21T06:43:47;6.83;;;3.87;;
2760;SDS011;15420;48.636;9.798;2023-03-21T06:46:13;6.10;;;3.70;;
2760;SDS011;15420;48.636;9.798;2023-03-21T06:48:40;3.50;;;3.20;;
2760;SDS011;15420;48.636;9.798;2023-03-21T06:51:09;2.93;;;2.73;;
2760;SDS011;15420;48.636;9.798;2023-03-21T06:53:39;3.77;;;3.20;;
2760;SDS011;15420;48.636;9.798;2023-03-21T06:56:06;6.53;;;4.00;;
2760;SDS011;15420;48.636;9.798;2023-03-21T06:58:33;4.27;;;3.47;;
2760;SDS011;15420;48.636;9.798;2023-03-21T07:01:00;3.50;;;3.20;;
2760;SDS011;15420;48.636;9.798;2023-03-21T07:03:27;4.13;;;3.33;;
2760;SDS011;15420;48.636;9.798;2023-03-21T07:05:53;7.20;;;3.37;;
2760;SDS011;15420;48.636;9.798;2023-03-21T07:08:22;5.20;;;3.53;;
2760;SDS011;15420;48.636;9.798;2023-03-21T07:10:49;4.10;;;3.13;;
2760;SDS011;15420;48.636;9.798;2023-03-21T07:13:19;4.57;;;3.60;;
2760;SDS011;15420;48.636;9.798;2023-03-21T07:15:53;6.63;;;3.47;;
2760;SDS011;15420;48.636;9.798;2023-03-21T07:18:20;5.53;;;3.00;;
2760;SDS011;15420;48.636;9.798;2023-03-21T07:20:49;5.73;;;3.50;;
2760;SDS011;15420;48.636;9.798;2023-03-21T07:23:19;6.20;;;3.60;;
2760;SDS011;15420;48.636;9.798;2023-03-21T07:25:47;4.77;;;4.10;;
2760;SDS011;15420;48.636;9.798;2023-03-21T07:28:17;5.73;;;3.67;;
2760;SDS011;15420;48.636;9.798;2023-03-21T07:30:53;7.17;;;4.07;;
2760;SDS011;15420;48.636;9.798;2023-03-21T07:33:24;5.43;;;3.20;;
2760;SDS011;15420;48.636;9.798;2023-03-21T07:35:53;7.23;;;3.77;;
2760;SDS011;15420;48.636;9.798;2023-03-21T07:38:24;10.73;;;3.43;;
2760;SDS011;15420;48.636;9.798;2023-03-21T07:40:53;7.70;;;4.73;;
2760;SDS011;15420;48.636;9.798;2023-03-21T07:43:24;6.53;;;4.03;;
2760;SDS011;15420;48.636;9.798;2023-03-21T07:45:56;4.30;;;3.40;;
2760;SDS011;15420;48.636;9.798;2023-03-21T07:48:24;5.80;;;3.93;;
2760;SDS011;15420;48.636;9.798;2023-03-21T07:50:53;5.53;;;4.20;;
2760;SDS011;15420;48.636;9.798;2023-03-21T07:53:24;4.57;;;3.60;;
2760;SDS011;15420;48.636;9.798;2023-03-21T07:55:53;7.07;;;4.30;;
2760;SDS011;15420;48.636;9.798;2023-03-21T07:58:23;3.57;;;3.27;;
2760;SDS011;15420;48.636;9.798;2023-03-21T08:00:50;4.63;;;3.40;;
2760;SDS011;15420;48.636;9.798;2023-03-21T08:03:22;6.63;;;4.23;;
2760;SDS011;15420;48.636;9.798;2023-03-21T08:05:53;5.90;;;3.53;;
2760;SDS011;15420;48.636;9.798;2023-03-21T08:08:22;4.30;;;3.60;;
2760;SDS011;15420;48.636;9.798;2023-03-21T08:10:48;5.70;;;4.57;;
2760;SDS011;15420;48.636;9.798;2023-03-21T08:13:14;5.10;;;3.90;;
2760;SDS011;15420;48.636;9.798;2023-03-21T08:15:41;4.77;;;3.57;;
2760;SDS011;15420;48.636;9.798;2023-03-21T08:18:07;5.10;;;3.17;;
2760;SDS011;15420;48.636;9.798;2023-03-21T08:20:34;5.63;;;3.60;;
2760;SDS011;15420;48.636;9.798;2023-03-21T08:23:07;5.63;;;3.60;;
2760;SDS011;15420;48.636;9.798;2023-03-21T08:25:33;7.23;;;4.53;;
2760;SDS011;15420;48.636;9.798;2023-03-21T08:28:00;6.40;;;3.70;;
2760;SDS011;15420;48.636;9.798;2023-03-21T08:30:27;5.47;;;3.50;;
2760;SDS011;15420;48.636;9.798;2023-03-21T08:32:56;7.77;;;3.37;;
2760;SDS011;15420;48.636;9.798;2023-03-21T08:35:25;5.03;;;3.00;;
2760;SDS011;15420;48.636;9.798;2023-03-21T08:37:51;4.13;;;3.40;;
2760;SDS011;15420;48.636;9.798;2023-03-21T08:40:18;3.63;;;3.33;;
2760;SDS011;15420;48.636;9.798;2023-03-21T08:42:45;3.60;;;3.07;;
2760;SDS011;15420;48.636;9.798;2023-03-21T08:45:15;4.63;;;3.27;;
2760;SDS011;15420;48.636;9.798;2023-03-21T08:47:42;3.63;;;3.10;;
2760;SDS011;15420;48.636;9.798;2023-03-21T08:50:10;4.17;;;3.10;;
2760;SDS011;15420;48.636;9.798;2023-03-21T08:52:38;3.70;;;2.83;;
2760;SDS011;15420;48.636;9.798;2023-03-21T08:55:10;3.73;;;2.97;;
2760;SDS011;15420;48.636;9.798;2023-03-21T08:57:37;4.07;;;3.27;;
2760;SDS011;15420;48.636;9.798;2023-03-21T09:00:04;4.13;;;3.57;;
2760;SDS011;15420;48.636;9.798;2023-03-21T09:02:37;4.07;;;2.97;;
2760;SDS011;15420;48.636;9.798;2023-03-21T09:05:04;7.33;;;3.70;;
2760;SDS011;15420;48.636;9.798;2023-03-21T09:07:32;5.97;;;2.93;;
2760;SDS011;15420;48.636;9.798;2023-03-21T09:10:00;2.60;;;2.40;;
2760;SDS011;15420;48.636;9.798;2023-03-21T09:12:31;4.10;;;3.47;;
2760;SDS011;15420;48.636;9.798;2023-03-21T09:15:00;4.90;;;3.60;;
2760;SDS011;15420;48.636;9.798;2023-03-21T09:17:30;3.70;;;2.70;;
2760;SDS011;15420;48.636;9.798;2023-03-21T09:19:58;4.37;;;2.67;;
2760;SDS011;15420;48.636;9.798;2023-03-21T09:22:35;5.00;;;3.70;;
2760;SDS011;15420;48.636;9.798;2023-03-21T09:25:03;4.07;;;2.80;;
2760;SDS011;15420;48.636;9.798;2023-03-21T09:27:33;4.67;;;3.40;;
2760;SDS011;15420;48.636;9.798;2023-03-21T09:30:04;3.73;;;3.33;;
2760;SDS011;15420;48.636;9.798;2023-03-21T09:32:33;4.40;;;3.60;;
2760;SDS011;15420;48.636;9.798;2023-03-21T09:35:01;4.00;;;3.30;;
2760;SDS011;15420;48.636;9.798;2023-03-21T09:37:29;4.60;;;3.40;;
2760;SDS011;15420;48.636;9.798;2023-03-21T09:40:00;3.83;;;3.10;;
2760;SDS011;15420;48.636;9.798;2023-03-21T09:45:11;3.77;;;2.93;;
2760;SDS011;15420;48.636;9.798;2023-03-21T09:47:59;3.07;;;2.57;;
2760;SDS011;15420;48.636;9.798;2023-03-21T09:50:33;3.67;;;2.90;;
2760;SDS011;15420;48.636;9.798;2023-03-21T09:55:37;4.00;;;3.20;;
2760;SDS011;15420;48.636;9.798;2023-03-21T10:01:05;3.90;;;2.90;;
2760;SDS011;15420;48.636;9.798;2023-03-21T10:03:53;3.43;;;2.83;;
2760;SDS011;15420;48.636;9.798;2023-03-21T10:06:34;4.17;;;2.77;;
2760;SDS011;15420;48.636;9.798;2023-03-21T10:09:05;4.20;;;2.50;;
2760;SDS011;15420;48.636;9.798;2023-03-21T10:11:42;2.60;;;2.40;;
2760;SDS011;15420;48.636;9.798;2023-03-21T10:14:21;2.93;;;2.33;;
2760;SDS011;15420;48.636;9.798;2023-03-21T10:17:03;4.20;;;2.77;;
2760;SDS011;15420;48.636;9.798;2023-03-21T10:22:52;9.70;;;3.30;;
2760;SDS011;15420;48.636;9.798;2023-03-21T10:25:34;3.27;;;2.87;;
2760;SDS011;15420;48.636;9.798;2023-03-21T10:28:06;2.77;;;2.53;;
2760;SDS011;15420;48.636;9.798;2023-03-21T10:30:40;3.13;;;2.80;;
2760;SDS011;15420;48.636;9.798;2023-03-21T10:33:26;2.70;;;2.37;;
2760;SDS011;15420;48.636;9.798;2023-03-21T10:36:06;3.40;;;2.50;;
2760;SDS011;15420;48.636;9.798;2023-03-21T10:38:33;3.37;;;2.30;;
2760;SDS011;15420;48.636;9.798;2023-03-21T10:41:00;3.00;;;2.43;;
2760;SDS011;15420;48.636;9.798;2023-03-21T10:43:31;3.33;;;2.43;;
2760;SDS011;15420;48.636;9.798;2023-03-21T10:46:04;2.57;;;2.37;;
2760;SDS011;15420;48.636;9.798;2023-03-21T10:48:41;3.07;;;2.60;;
2760;SDS011;15420;48.636;9.798;2023-03-21T10:51:14;2.83;;;2.57;;
2760;SDS011;15420;48.636;9.798;2023-03-21T10:53:48;2.40;;;2.20;;
2760;SDS011;15420;48.636;9.798;2023-03-21T10:56:59;3.17;;;2.20;;
2760;SDS011;15420;48.636;9.798;2023-03-21T11:02:16;2.17;;;2.00;;
2760;SDS011;15420;48.636;9.798;2023-03-21T11:04:46;2.90;;;2.60;;
2760;SDS011;15420;48.636;9.798;2023-03-21T11:07:19;2.60;;;2.30;;
2760;SDS011;15420;48.636;9.798;2023-03-21T11:09:52;2.70;;;2.50;;
2760;SDS011;15420;48.636;9.798;2023-03-21T11:12:34;2.60;;;2.40;;
2760;SDS011;15420;48.636;9.798;2023-03-21T11:18:13;2.30;;;1.97;;
2760;SDS011;15420;48.636;9.798;2023-03-21T11:20:46;2.60;;;2.40;;
2760;SDS011;15420;48.636;9.798;2023-03-21T11:23:27;3.07;;;2.53;;
2760;SDS011;15420;48.636;9.798;2023-03-21T11:25:58;2.00;;;1.80;;
2760;SDS011;15420;48.636;9.798;2023-03-21T11:28:31;2.00;;;1.83;;
2760;SDS011;15420;48.636;9.798;2023-03-21T11:31:03;2.30;;;2.07;;
2760;SDS011;15420;48.636;9.798;2023-03-21T11:33:41;2.20;;;2.00;;
2760;SDS011;15420;48.636;9.798;2023-03-21T11:38:46;1.83;;;1.53;;
2760;SDS011;15420;48.636;9.798;2023-03-21T11:41:22;2.70;;;2.10;;
2760;SDS011;15420;48.636;9.798;2023-03-21T11:43:54;1.50;;;1.40;;
2760;SDS011;15420;48.636;9.798;2023-03-21T11:46:25;1.83;;;1.60;;
2760;SDS011;15420;48.636;9.798;2023-03-21T11:48:55;2.10;;;1.90;;
2760;SDS011;15420;48.636;9.798;2023-03-21T12:02:25;2.50;;;2.30;;
2760;SDS011;15420;48.636;9.798;2023-03-21T12:05:22;2.13;;;1.67;;
2760;SDS011;15420;48.636;9.798;2023-03-21T12:16:04;2.67;;;2.23;;
2760;SDS011;15420;48.636;9.798;2023-03-21T12:21:19;1.90;;;1.73;;
2760;SDS011;15420;48.636;9.798;2023-03-21T12:32:34;4.50;;;1.90;;
2760;SDS011;15420;48.636;9.798;2023-03-21T12:43:32;2.17;;;2.03;;
2760;SDS011;15420;48.636;9.798;2023-03-21T12:46:18;2.97;;;1.93;;
2760;SDS011;15420;48.636;9.798;2023-03-21T12:51:40;3.80;;;1.87;;
2760;SDS011;15420;48.636;9.798;2023-03-21T12:54:20;2.97;;;1.47;;
2760;SDS011;15420;48.636;9.798;2023-03-21T13:00:04;3.93;;;1.90;;
2760;SDS011;15420;48.636;9.798;2023-03-21T13:02:41;5.73;;;3.90;;
2760;SDS011;15420;48.636;9.798;2023-03-21T13:05:26;4.20;;;3.40;;
2760;SDS011;15420;48.636;9.798;2023-03-21T13:08:32;3.60;;;3.13;;
2760;SDS011;15420;48.636;9.798;2023-03-21T13:11:06;4.87;;;2.70;;
2760;SDS011;15420;48.636;9.798;2023-03-21T13:13:46;4.40;;;2.67;;
2760;SDS011;15420;48.636;9.798;2023-03-21T13:21:55;8.33;;;2.53;;
2760;SDS011;15420;48.636;9.798;2023-03-21T13:27:51;2.40;;;2.20;;
2760;SDS011;15420;48.636;9.798;2023-03-21T13:30:23;3.73;;;3.37;;
2760;SDS011;15420;48.636;9.798;2023-03-21T13:36:04;3.37;;;2.50;;
2760;SDS011;15420;48.636;9.798;2023-03-21T13:38:38;2.30;;;2.03;;
2760;SDS011;15420;48.636;9.798;2023-03-21T13:43:44;2.00;;;1.90;;
2760;SDS011;15420;48.636;9.798;2023-03-21T13:54:01;6.93;;;2.73;;
2760;SDS011;15420;48.636;9.798;2023-03-21T14:02:16;2.40;;;2.17;;
2760;SDS011;15420;48.636;9.798;2023-03-21T14:04:51;7.03;;;3.20;;
2760;SDS011;15420;48.636;9.798;2023-03-21T14:07:43;3.57;;;2.80;;
2760;SDS011;15420;48.636;9.798;2023-03-21T14:10:17;3.00;;;2.70;;
2760;SDS011;15420;48.636;9.798;2023-03-21T14:12:51;3.40;;;2.80;;
2760;SDS011;15420;48.636;9.798;2023-03-21T14:17:59;3.03;;;2.70;;
2760;SDS011;15420;48.636;9.798;2023-03-21T14:20:30;3.73;;;3.20;;
2760;SDS011;15420;48.636;9.798;2023-03-21T14:23:06;5.63;;;3.93;;
2760;SDS011;15420;48.636;9.798;2023-03-21T14:25:38;3.50;;;3.20;;
2760;SDS011;15420;48.636;9.798;2023-03-21T14:28:12;3.50;;;3.20;;
2760;SDS011;15420;48.636;9.798;2023-03-21T14:30:59;2.73;;;2.53;;
2760;SDS011;15420;48.636;9.798;2023-03-21T14:36:03;3.40;;;3.10;;
2760;SDS011;15420;48.636;9.798;2023-03-21T14:38:39;6.80;;;3.93;;
2760;SDS011;15420;48.636;9.798;2023-03-21T14:41:17;8.27;;;3.30;;
2760;SDS011;15420;48.636;9.798;2023-03-21T14:47:15;4.10;;;3.50;;
2760;SDS011;15420;48.636;9.798;2023-03-21T14:49:49;3.90;;;2.93;;
2760;SDS011;15420;48.636;9.798;2023-03-21T14:52:19;3.10;;;2.80;;
2760;SDS011;15420;48.636;9.798;2023-03-21T14:54:49;3.50;;;2.87;;
2760;SDS011;15420;48.636;9.798;2023-03-21T14:57:21;2.37;;;2.17;;
2760;SDS011;15420;48.636;9.798;2023-03-21T15:00:00;3.30;;;2.60;;
2760;SDS011;15420;48.636;9.798;2023-03-21T15:02:40;2.83;;;2.63;;
2760;SDS011;15420;48.636;9.798;2023-03-21T15:05:25;3.50;;;2.40;;
2760;SDS011;15420;48.636;9.798;2023-03-21T15:08:25;2.77;;;2.20;;
2760;SDS011;15420;48.636;9.798;2023-03-21T15:13:26;2.53;;;2.30;;
2760;SDS011;15420;48.636;9.798;2023-03-21T15:15:57;2.30;;;2.07;;
2760;SDS011;15420;48.636;9.798;2023-03-21T15:18:36;3.60;;;2.80;;
2760;SDS011;15420;48.636;9.798;2023-03-21T15:21:08;3.90;;;3.40;;
2760;SDS011;15420;48.636;9.798;2023-03-21T15:23:47;2.80;;;2.30;;
2760;SDS011;15420;48.636;9.798;2023-03-21T15:26:23;1.83;;;1.73;;
2760;SDS011;15420;48.636;9.798;2023-03-21T15:28:54;3.27;;;2.23;;
2760;SDS011;15420;48.636;9.798;2023-03-21T15:31:23;4.57;;;2.50;;
2760;SDS011;15420;48.636;9.798;2023-03-21T15:33:57;2.20;;;2.00;;
2760;SDS011;15420;48.636;9.798;2023-03-21T15:36:28;3.07;;;2.80;;
2760;SDS011;15420;48.636;9.798;2023-03-21T15:39:05;2.77;;;2.17;;
2760;SDS011;15420;48.636;9.798;2023-03-21T15:41:37;4.10;;;2.73;;
2760;SDS011;15420;48.636;9.798;2023-03-21T15:44:09;3.27;;;2.87;;
2760;SDS011;15420;48.636;9.798;2023-03-21T15:54:43;2.70;;;2.50;;
2760;SDS011;15420;48.636;9.798;2023-03-21T15:57:18;3.17;;;2.60;;
2760;SDS011;15420;48.636;9.798;2023-03-21T16:00:30;5.53;;;3.00;;
2760;SDS011;15420;48.636;9.798;2023-03-21T16:23:36;4.80;;;2.33;;
2760;SDS011;15420;48.636;9.798;2023-03-21T16:26:02;2.17;;;2.07;;
2760;SDS011;15420;48.636;9.798;2023-03-21T16:28:31;2.50;;;2.30;;
2760;SDS011;15420;48.636;9.798;2023-03-21T16:31:01;3.90;;;2.70;;
2760;SDS011;15420;48.636;9.798;2023-03-21T16:33:28;3.83;;;3.07;;
2760;SDS011;15420;48.636;9.798;2023-03-21T16:35:54;4.43;;;3.13;;
2760;SDS011;15420;48.636;9.798;2023-03-21T16:38:24;6.00;;;3.13;;
2760;SDS011;15420;48.636;9.798;2023-03-21T16:40:55;8.33;;;4.30;;
2760;SDS011;15420;48.636;9.798;2023-03-21T16:43:22;6.23;;;4.07;;
2760;SDS011;15420;48.636;9.798;2023-03-21T16:45:52;6.23;;;4.60;;
2760;SDS011;15420;48.636;9.798;2023-03-21T16:48:18;5.20;;;3.87;;
2760;SDS011;15420;48.636;9.798;2023-03-21T16:50:45;10.30;;;7.43;;
2760;SDS011;15420;48.636;9.798;2023-03-21T16:53:12;9.23;;;7.13;;
2760;SDS011;15420;48.636;9.798;2023-03-21T16:55:38;7.03;;;6.33;;
2760;SDS011;15420;48.636;9.798;2023-03-21T16:58:07;6.30;;;5.47;;
2760;SDS011;15420;48.636;9.798;2023-03-21T17:00:38;6.57;;;5.33;;
2760;SDS011;15420;48.636;9.798;2023-03-21T17:03:13;9.17;;;5.00;;
2760;SDS011;15420;48.636;9.798;2023-03-21T17:05:42;5.80;;;4.40;;
2760;SDS011;15420;48.636;9.798;2023-03-21T17:08:14;6.63;;;4.23;;
2760;SDS011;15420;48.636;9.798;2023-03-21T17:10:45;3.90;;;3.60;;
2760;SDS011;15420;48.636;9.798;2023-03-21T17:13:11;4.30;;;3.60;;
2760;SDS011;15420;48.636;9.798;2023-03-21T17:15:38;5.87;;;3.60;;
2760;SDS011;15420;48.636;9.798;2023-03-21T17:18:05;4.60;;;3.83;;
2760;SDS011;15420;48.636;9.798;2023-03-21T17:20:32;3.60;;;2.80;;
2760;SDS011;15420;48.636;9.798;2023-03-21T17:23:03;2.33;;;2.10;;
2760;SDS011;15420;48.636;9.798;2023-03-21T17:25:30;2.07;;;1.87;;
2760;SDS011;15420;48.636;9.798;2023-03-21T17:27:56;4.27;;;2.73;;
2760;SDS011;15420;48.636;9.798;2023-03-21T17:30:26;5.53;;;4.40;;
2760;SDS011;15420;48.636;9.798;2023-03-21T17:33:00;6.33;;;4.43;;
2760;SDS011;15420;48.636;9.798;2023-03-21T17:35:28;3.37;;;3.07;;
2760;SDS011;15420;48.636;9.798;2023-03-21T17:37:56;5.17;;;4.10;;
2760;SDS011;15420;48.636;9.798;2023-03-21T17:40:24;4.67;;;3.83;;
2760;SDS011;15420;48.636;9.798;2023-03-21T17:42:52;5.83;;;4.37;;
2760;SDS011;15420;48.636;9.798;2023-03-21T17:45:21;4.57;;;3.80;;
2760;SDS011;15420;48.636;9.798;2023-03-21T17:47:48;4.30;;;2.77;;
2760;SDS011;15420;48.636;9.798;2023-03-21T17:50:23;3.67;;;2.77;;
2760;SDS011;15420;48.636;9.798;2023-03-21T17:52:57;3.03;;;2.73;;
2760;SDS011;15420;48.636;9.798;2023-03-21T17:55:24;2.63;;;2.43;;
2760;SDS011;15420;48.636;9.798;2023-03-21T17:57:53;2.90;;;2.43;;
2760;SDS011;15420;48.636;9.798;2023-03-21T18:00:29;4.50;;;3.30;;
2760;SDS011;15420;48.636;9.798;2023-03-21T18:02:56;5.43;;;3.03;;
2760;SDS011;15420;48.636;9.798;2023-03-21T18:05:28;3.20;;;2.90;;
2760;SDS011;15420;48.636;9.798;2023-03-21T18:07:57;3.53;;;2.57;;
2760;SDS011;15420;48.636;9.798;2023-03-21T18:10:26;3.77;;;2.80;;
2760;SDS011;15420;48.636;9.798;2023-03-21T18:12:52;7.93;;;2.10;;
2760;SDS011;15420;48.636;9.798;2023-03-21T18:15:20;5.40;;;3.17;;
2760;SDS011;15420;48.636;9.798;2023-03-21T18:17:48;4.47;;;3.17;;
2760;SDS011;15420;48.636;9.798;2023-03-21T18:20:15;4.30;;;3.90;;
2760;SDS011;15420;48.636;9.798;2023-03-21T18:22:47;7.07;;;5.37;;